sensor_id;sensor_type;location;lat;lon;timestamp;pressure;altitude;pressure_sealevel;temperature;humidity
14594;BME280;7383;52.354;9.756;2023-04-01T00:00:33;-12667.69;;;12.21;100.00
14594;BME280;7383;52.354;9.756;2023-04-01T00:03:01;-12668.56;;;12.26;100.00
14594;BME280;7383;52.354;9.756;2023-04-01T00:05:29;-12669.50;;;12.31;100.00
14594;BME280;7383;52.354;9.756;2023-04-01T00:07:56;-12670.47;;;12.37;100.00
14594;BME280;7383;52.354;9.756;2023-04-01T00:10:23;-12670.66;;;12.38;100.00
14594;BME280;7383;52.354;9.756;2023-04-01T00:13:09;-12671.34;;;12.42;100.00
14594;BME280;7383;52.354;9.756;2023-04-01T00:15:36;-12670.72;;;12.39;100.00
14594;BME280;7383;52.354;9.756;2023-04-01T00:18:04;-12670.22;;;12.36;100.00
14594;BME280;7383;52.354;9.756;2023-04-01T00:20:35;-12670.13;;;12.35;100.00
14594;BME280;7383;52.354;9.756;2023-04-01T00:23:02;-12669.78;;;12.33;100.00
14594;BME280;7383;52.354;9.756;2023-04-01T00:25:33;-12668.91;;;12.28;100.00
14594;BME280;7383;52.354;9.756;2023-04-01T00:28:00;-12668.28;;;12.24;100.00
14594;BME280;7383;52.354;9.756;2023-04-01T00:30:28;-12667.25;;;12.18;100.00
14594;BME280;7383;52.354;9.756;2023-04-01T00:32:57;-12666.56;;;12.14;100.00
14594;BME280;7383;52.354;9.756;2023-04-01T00:35:23;-12665.78;;;12.10;100.00
14594;BME280;7383;52.354;9.756;2023-04-01T00:37:51;-12664.97;;;12.05;100.00
14594;BME280;7383;52.354;9.756;2023-04-01T00:40:25;-12664.47;;;12.02;100.00
14594;BME280;7383;52.354;9.756;2023-04-01T00:42:54;-12664.19;;;12.01;100.00
14594;BME280;7383;52.354;9.756;2023-04-01T00:48:13;-12662.44;;;11.91;100.00
14594;BME280;7383;52.354;9.756;2023-04-01T00:50:43;-12662.19;;;11.89;100.00
14594;BME280;7383;52.354;9.756;2023-04-01T00:53:11;-12661.84;;;11.87;100.00
14594;BME280;7383;52.354;9.756;2023-04-01T00:55:42;-12661.75;;;11.87;100.00
14594;BME280;7383;52.354;9.756;2023-04-01T00:58:15;-12661.50;;;11.85;100.00
14594;BME280;7383;52.354;9.756;2023-04-01T01:00:46;-12661.94;;;11.88;100.00
14594;BME280;7383;52.354;9.756;2023-04-01T01:03:17;-12661.16;;;11.83;100.00
14594;BME280;7383;52.354;9.756;2023-04-01T01:06:08;-12660.72;;;11.80;100.00
14594;BME280;7383;52.354;9.756;2023-04-01T01:09:01;-12660.72;;;11.80;100.00
14594;BME280;7383;52.354;9.756;2023-04-01T01:11:36;-12659.94;;;11.76;100.00
14594;BME280;7383;52.354;9.756;2023-04-01T01:14:09;-12659.66;;;11.74;100.00
14594;BME280;7383;52.354;9.756;2023-04-01T01:16:43;-12659.31;;;11.72;100.00
14594;BME280;7383;52.354;9.756;2023-04-01T01:19:23;-12658.78;;;11.69;100.00
14594;BME280;7383;52.354;9.756;2023-04-01T01:22:11;-12658.69;;;11.69;100.00
14594;BME280;7383;52.354;9.756;2023-04-01T01:24:55;-12657.84;;;11.64;100.00
14594;BME280;7383;52.354;9.756;2023-04-01T01:27:31;-12657.22;;;11.60;100.00
14594;BME280;7383;52.354;9.756;2023-04-01T01:30:22;-12658.34;;;11.67;100.00
14594;BME280;7383;52.354;9.756;2023-04-01T01:33:24;-12658.69;;;11.69;100.00
14594;BME280;7383;52.354;9.756;2023-04-01T01:35:54;-12657.91;;;11.64;100.00
14594;BME280;7383;52.354;9.756;2023-04-01T01:38:24;-12657.56;;;11.62;100.00
14594;BME280;7383;52.354;9.756;2023-04-01T01:40:55;-12658.00;;;11.65;100.00
14594;BME280;7383;52.354;9.756;2023-04-01T01:43:25;-12657.91;;;11.64;100.00
14594;BME280;7383;52.354;9.756;2023-04-01T01:45:55;-12658.53;;;11.68;100.00
14594;BME280;7383;52.354;9.756;2023-04-01T01:48:26;-12657.75;;;11.63;100.00
14594;BME280;7383;52.354;9.756;2023-04-01T01:50:57;-12658.19;;;11.66;100.00
14594;BME280;7383;52.354;9.756;2023-04-01T01:53:26;-12658.97;;;11.70;100.00
14594;BME280;7383;52.354;9.756;2023-04-01T01:55:53;-12659.16;;;11.71;100.00
14594;BME280;7383;52.354;9.756;2023-04-01T01:58:22;-12659.75;;;11.75;100.00
14594;BME280;7383;52.354;9.756;2023-04-01T02:00:53;-12660.72;;;11.80;100.00
14594;BME280;7383;52.354;9.756;2023-04-01T02:03:29;-12661.50;;;11.85;100.00
14594;BME280;7383;52.354;9.756;2023-04-01T02:06:01;-12662.03;;;11.88;100.00
14594;BME280;7383;52.354;9.756;2023-04-01T02:08:34;-12662.19;;;11.89;100.00
14594;BME280;7383;52.354;9.756;2023-04-01T02:11:05;-12661.84;;;11.87;100.00
14594;BME280;7383;52.354;9.756;2023-04-01T02:13:36;-12661.66;;;11.86;100.00
14594;BME280;7383;52.354;9.756;2023-04-01T02:16:13;-12661.59;;;11.86;100.00
14594;BME280;7383;52.354;9.756;2023-04-01T02:18:43;-12660.53;;;11.79;100.00
14594;BME280;7383;52.354;9.756;2023-04-01T02:21:13;-12660.38;;;11.78;100.00
14594;BME280;7383;52.354;9.756;2023-04-01T02:23:52;-12659.56;;;11.74;100.00
14594;BME280;7383;52.354;9.756;2023-04-01T02:26:20;-12660.00;;;11.76;100.00
14594;BME280;7383;52.354;9.756;2023-04-01T02:28:50;-12660.72;;;11.80;100.00
14594;BME280;7383;52.354;9.756;2023-04-01T02:31:19;-12661.59;;;11.86;100.00
14594;BME280;7383;52.354;9.756;2023-04-01T02:33:47;-12662.19;;;11.89;100.00
14594;BME280;7383;52.354;9.756;2023-04-01T02:36:17;-12662.91;;;11.93;100.00
14594;BME280;7383;52.354;9.756;2023-04-01T02:38:51;-12663.06;;;11.94;100.00
14594;BME280;7383;52.354;9.756;2023-04-01T02:41:19;-12662.81;;;11.93;100.00
14594;BME280;7383;52.354;9.756;2023-04-01T02:43:48;-12662.91;;;11.93;100.00
14594;BME280;7383;52.354;9.756;2023-04-01T02:46:15;-12662.97;;;11.94;100.00
14594;BME280;7383;52.354;9.756;2023-04-01T02:48:48;-12662.72;;;11.92;100.00
14594;BME280;7383;52.354;9.756;2023-04-01T02:51:16;-12663.31;;;11.96;100.00
14594;BME280;7383;52.354;9.756;2023-04-01T02:53:44;-12663.50;;;11.97;100.00
14594;BME280;7383;52.354;9.756;2023-04-01T02:56:12;-12663.25;;;11.95;100.00
14594;BME280;7383;52.354;9.756;2023-04-01T02:58:39;-12663.06;;;11.94;100.00
14594;BME280;7383;52.354;9.756;2023-04-01T03:01:10;-12662.91;;;11.93;100.00
14594;BME280;7383;52.354;9.756;2023-04-01T03:03:36;-12663.16;;;11.95;100.00
14594;BME280;7383;52.354;9.756;2023-04-01T03:06:08;-12663.06;;;11.94;100.00
14594;BME280;7383;52.354;9.756;2023-04-01T03:08:37;-12663.16;;;11.95;100.00
14594;BME280;7383;52.354;9.756;2023-04-01T03:11:04;-12663.84;;;11.99;100.00
14594;BME280;7383;52.354;9.756;2023-04-01T03:13:32;-12663.59;;;11.97;100.00
14594;BME280;7383;52.354;9.756;2023-04-01T03:15:59;-12663.25;;;11.95;100.00
14594;BME280;7383;52.354;9.756;2023-04-01T03:18:27;-12664.13;;;12.00;100.00
14594;BME280;7383;52.354;9.756;2023-04-01T03:20:54;-12664.47;;;12.02;100.00
14594;BME280;7383;52.354;9.756;2023-04-01T03:23:20;-12664.72;;;12.04;100.00
14594;BME280;7383;52.354;9.756;2023-04-01T03:25:53;-12664.81;;;12.04;100.00
14594;BME280;7383;52.354;9.756;2023-04-01T03:28:19;-12665.34;;;12.07;100.00
14594;BME280;7383;52.354;9.756;2023-04-01T03:30:46;-12666.13;;;12.12;100.00
14594;BME280;7383;52.354;9.756;2023-04-01T03:33:14;-12666.47;;;12.14;100.00
14594;BME280;7383;52.354;9.756;2023-04-01T03:35:42;-12666.28;;;12.13;100.00
14594;BME280;7383;52.354;9.756;2023-04-01T03:38:11;-12666.19;;;12.12;100.00
14594;BME280;7383;52.354;9.756;2023-04-01T03:40:41;-12666.72;;;12.15;100.00
14594;BME280;7383;52.354;9.756;2023-04-01T03:43:09;-12667.16;;;12.18;100.00
14594;BME280;7383;52.354;9.756;2023-04-01T03:45:36;-12667.59;;;12.20;100.00
14594;BME280;7383;52.354;9.756;2023-04-01T03:48:09;-12667.94;;;12.22;100.00
14594;BME280;7383;52.354;9.756;2023-04-01T03:50:36;-12668.13;;;12.23;100.00
14594;BME280;7383;52.354;9.756;2023-04-01T03:53:02;-12668.81;;;12.27;100.00
14594;BME280;7383;52.354;9.756;2023-04-01T03:55:29;-12669.06;;;12.29;100.00
14594;BME280;7383;52.354;9.756;2023-04-01T03:57:55;-12669.25;;;12.30;100.00
14594;BME280;7383;52.354;9.756;2023-04-01T04:00:25;-12668.91;;;12.28;100.00
14594;BME280;7383;52.354;9.756;2023-04-01T04:02:51;-12669.50;;;12.31;100.00
14594;BME280;7383;52.354;9.756;2023-04-01T04:05:18;-12669.16;;;12.29;100.00
14594;BME280;7383;52.354;9.756;2023-04-01T04:07:44;-12669.25;;;12.30;100.00
14594;BME280;7383;52.354;9.756;2023-04-01T04:10:18;-12669.00;;;12.28;100.00
14594;BME280;7383;52.354;9.756;2023-04-01T04:12:45;-12668.56;;;12.26;100.00
14594;BME280;7383;52.354;9.756;2023-04-01T04:15:12;-12668.38;;;12.25;100.00
14594;BME280;7383;52.354;9.756;2023-04-01T04:17:40;-12668.13;;;12.23;100.00
14594;BME280;7383;52.354;9.756;2023-04-01T04:20:07;-12668.56;;;12.26;100.00
14594;BME280;7383;52.354;9.756;2023-04-01T04:22:34;-12668.03;;;12.23;100.00
14594;BME280;7383;52.354;9.756;2023-04-01T04:25:01;-12667.84;;;12.22;100.00
14594;BME280;7383;52.354;9.756;2023-04-01T04:27:28;-12668.13;;;12.23;100.00
14594;BME280;7383;52.354;9.756;2023-04-01T04:29:55;-12668.91;;;12.28;100.00
14594;BME280;7383;52.354;9.756;2023-04-01T04:32:21;-12669.00;;;12.28;100.00
14594;BME280;7383;52.354;9.756;2023-04-01T04:34:49;-12669.06;;;12.29;100.00
14594;BME280;7383;52.354;9.756;2023-04-01T04:37:17;-12669.34;;;12.30;100.00
14594;BME280;7383;52.354;9.756;2023-04-01T04:39:43;-12669.16;;;12.29;100.00
14594;BME280;7383;52.354;9.756;2023-04-01T04:42:11;-12669.34;;;12.30;100.00
14594;BME280;7383;52.354;9.756;2023-04-01T04:44:39;-12669.59;;;12.32;100.00
14594;BME280;7383;52.354;9.756;2023-04-01T04:47:05;-12669.69;;;12.32;100.00
14594;BME280;7383;52.354;9.756;2023-04-01T04:49:33;-12669.94;;;12.34;100.00
14594;BME280;7383;52.354;9.756;2023-04-01T04:52:03;-12669.44;;;12.31;100.00
14594;BME280;7383;52.354;9.756;2023-04-01T04:54:29;-12669.59;;;12.32;100.00
14594;BME280;7383;52.354;9.756;2023-04-01T04:56:56;-12668.03;;;12.23;100.00
14594;BME280;7383;52.354;9.756;2023-04-01T04:59:31;-12667.78;;;12.21;100.00
14594;BME280;7383;52.354;9.756;2023-04-01T05:01:59;-12667.06;;;12.17;100.00
14594;BME280;7383;52.354;9.756;2023-04-01T05:04:26;-12666.81;;;12.16;100.00
14594;BME280;7383;52.354;9.756;2023-04-01T05:06:52;-12666.72;;;12.15;100.00
14594;BME280;7383;52.354;9.756;2023-04-01T05:09:21;-12666.38;;;12.13;100.00
14594;BME280;7383;52.354;9.756;2023-04-01T05:11:48;-12666.56;;;12.14;100.00
14594;BME280;7383;52.354;9.756;2023-04-01T05:14:18;-12665.78;;;12.10;100.00
14594;BME280;7383;52.354;9.756;2023-04-01T05:16:46;-12664.97;;;12.05;100.00
14594;BME280;7383;52.354;9.756;2023-04-01T05:19:14;-12664.19;;;12.01;100.00
14594;BME280;7383;52.354;9.756;2023-04-01T05:21:46;-12663.41;;;11.96;100.00
14594;BME280;7383;52.354;9.756;2023-04-01T05:24:30;-12663.50;;;11.97;100.00
14594;BME280;7383;52.354;9.756;2023-04-01T05:26:59;-12663.31;;;11.96;100.00
14594;BME280;7383;52.354;9.756;2023-04-01T05:29:34;-12662.63;;;11.92;100.00
14594;BME280;7383;52.354;9.756;2023-04-01T05:32:05;-12662.63;;;11.92;100.00
14594;BME280;7383;52.354;9.756;2023-04-01T05:34:59;-12663.06;;;11.94;100.00
14594;BME280;7383;52.354;9.756;2023-04-01T05:37:42;-12663.16;;;11.95;100.00
14594;BME280;7383;52.354;9.756;2023-04-01T05:40:17;-12663.50;;;11.97;100.00
14594;BME280;7383;52.354;9.756;2023-04-01T05:43:18;-12663.31;;;11.96;100.00
14594;BME280;7383;52.354;9.756;2023-04-01T05:46:21;-12664.53;;;12.03;100.00
14594;BME280;7383;52.354;9.756;2023-04-01T05:49:23;-12664.72;;;12.04;100.00
14594;BME280;7383;52.354;9.756;2023-04-01T05:52:32;-12664.97;;;12.05;100.00
14594;BME280;7383;52.354;9.756;2023-04-01T05:55:26;-12664.97;;;12.05;100.00
14594;BME280;7383;52.354;9.756;2023-04-01T05:58:08;-12666.19;;;12.12;100.00
14594;BME280;7383;52.354;9.756;2023-04-01T06:00:51;-12666.56;;;12.14;100.00
14594;BME280;7383;52.354;9.756;2023-04-01T06:03:31;-12667.50;;;12.20;100.00
14594;BME280;7383;52.354;9.756;2023-04-01T06:06:04;-12668.38;;;12.25;100.00
14594;BME280;7383;52.354;9.756;2023-04-01T06:08:34;-12669.00;;;12.28;100.00
14594;BME280;7383;52.354;9.756;2023-04-01T06:11:17;-12670.28;;;12.36;100.00
14594;BME280;7383;52.354;9.756;2023-04-01T06:13:58;-12670.91;;;12.40;100.00
14594;BME280;7383;52.354;9.756;2023-04-01T06:17:46;-12671.94;;;12.46;100.00
14594;BME280;7383;52.354;9.756;2023-04-01T06:19:52;-12672.47;;;12.49;100.00
14594;BME280;7383;52.354;9.756;2023-04-01T06:22:49;-12672.38;;;12.48;100.00
14594;BME280;7383;52.354;9.756;2023-04-01T06:25:58;-12672.03;;;12.46;100.00
14594;BME280;7383;52.354;9.756;2023-04-01T06:28:51;-12671.69;;;12.44;100.00
14594;BME280;7383;52.354;9.756;2023-04-01T06:31:30;-12671.88;;;12.45;100.00
14594;BME280;7383;52.354;9.756;2023-04-01T06:40:41;-12675.25;;;12.65;100.00
14594;BME280;7383;52.354;9.756;2023-04-01T06:44:04;-12675.25;;;12.65;100.00
14594;BME280;7383;52.354;9.756;2023-04-01T06:46:56;-12676.66;;;12.73;100.00
14594;BME280;7383;52.354;9.756;2023-04-01T06:49:41;-12678.22;;;12.82;100.00
14594;BME280;7383;52.354;9.756;2023-04-01T06:52:35;-12678.91;;;12.86;100.00
14594;BME280;7383;52.354;9.756;2023-04-01T06:55:27;-12678.75;;;12.85;100.00
14594;BME280;7383;52.354;9.756;2023-04-01T06:57:59;-12677.69;;;12.79;100.00
14594;BME280;7383;52.354;9.756;2023-04-01T07:00:31;-12677.78;;;12.79;100.00
14594;BME280;7383;52.354;9.756;2023-04-01T07:03:05;-12676.75;;;12.73;100.00
14594;BME280;7383;52.354;9.756;2023-04-01T07:05:36;-12677.25;;;12.76;100.00
14594;BME280;7383;52.354;9.756;2023-04-01T07:08:06;-12676.75;;;12.73;100.00
14594;BME280;7383;52.354;9.756;2023-04-01T07:10:43;-12676.66;;;12.73;100.00
14594;BME280;7383;52.354;9.756;2023-04-01T07:13:17;-12676.13;;;12.70;100.00
14594;BME280;7383;52.354;9.756;2023-04-01T07:15:57;-12676.75;;;12.73;100.00
14594;BME280;7383;52.354;9.756;2023-04-01T07:18:31;-12677.00;;;12.75;100.00
14594;BME280;7383;52.354;9.756;2023-04-01T07:21:00;-12676.81;;;12.74;100.00
14594;BME280;7383;52.354;9.756;2023-04-01T07:23:31;-12676.03;;;12.69;100.00
14594;BME280;7383;52.354;9.756;2023-04-01T07:26:07;-12677.09;;;12.75;100.00
14594;BME280;7383;52.354;9.756;2023-04-01T07:28:40;-12677.44;;;12.77;100.00
14594;BME280;7383;52.354;9.756;2023-04-01T07:31:15;-12677.59;;;12.78;100.00
14594;BME280;7383;52.354;9.756;2023-04-01T07:33:55;-12677.34;;;12.77;100.00
14594;BME280;7383;52.354;9.756;2023-04-01T07:36:31;-12677.59;;;12.78;100.00
14594;BME280;7383;52.354;9.756;2023-04-01T07:39:08;-12678.41;;;12.83;100.00
14594;BME280;7383;52.354;9.756;2023-04-01T07:41:51;-12679.78;;;12.91;100.00
14594;BME280;7383;52.354;9.756;2023-04-01T07:44:25;-12680.75;;;12.97;100.00
14594;BME280;7383;52.354;9.756;2023-04-01T07:47:15;-12683.34;;;13.12;100.00
14594;BME280;7383;52.354;9.756;2023-04-01T07:49:56;-12685.53;;;13.24;100.00
14594;BME280;7383;52.354;9.756;2023-04-01T07:52:31;-12687.88;;;13.38;100.00
14594;BME280;7383;52.354;9.756;2023-04-01T07:55:06;-12689.72;;;13.49;100.00
14594;BME280;7383;52.354;9.756;2023-04-01T07:57:46;-12691.28;;;13.58;100.00
14594;BME280;7383;52.354;9.756;2023-04-01T08:00:19;-12691.97;;;13.62;100.00
14594;BME280;7383;52.354;9.756;2023-04-01T08:03:09;-12694.13;;;13.74;100.00
14594;BME280;7383;52.354;9.756;2023-04-01T08:05:41;-12695.28;;;13.81;100.00
14594;BME280;7383;52.354;9.756;2023-04-01T08:08:18;-12696.66;;;13.89;100.00
14594;BME280;7383;52.354;9.756;2023-04-01T08:10:50;-12696.75;;;13.90;100.00
14594;BME280;7383;52.354;9.756;2023-04-01T08:13:29;-12696.13;;;13.86;100.00
14594;BME280;7383;52.354;9.756;2023-04-01T08:16:04;-12697.09;;;13.92;100.00
14594;BME280;7383;52.354;9.756;2023-04-01T08:18:39;-12698.41;;;13.99;100.00
14594;BME280;7383;52.354;9.756;2023-04-01T08:21:14;-12700.91;;;14.14;100.00
14594;BME280;7383;52.354;9.756;2023-04-01T08:23:47;-12701.16;;;14.15;100.00
14594;BME280;7383;52.354;9.756;2023-04-01T08:26:19;-12702.47;;;14.23;100.00
14594;BME280;7383;52.354;9.756;2023-04-01T08:29:03;-12702.91;;;14.25;100.00
14594;BME280;7383;52.354;9.756;2023-04-01T08:31:34;-12704.13;;;14.32;100.00
14594;BME280;7383;52.354;9.756;2023-04-01T08:34:04;-12704.72;;;14.36;100.00
14594;BME280;7383;52.354;9.756;2023-04-01T08:36:37;-12704.56;;;14.35;100.00
14594;BME280;7383;52.354;9.756;2023-04-01T08:39:07;-12704.38;;;14.34;100.00
14594;BME280;7383;52.354;9.756;2023-04-01T08:42:08;-12703.94;;;14.32;100.00
14594;BME280;7383;52.354;9.756;2023-04-01T08:44:54;-12703.88;;;14.31;100.00
14594;BME280;7383;52.354;9.756;2023-04-01T08:47:50;-12702.91;;;14.25;100.00
14594;BME280;7383;52.354;9.756;2023-04-01T08:50:50;-12704.66;;;14.36;100.00
14594;BME280;7383;52.354;9.756;2023-04-01T08:53:34;-12703.16;;;14.27;100.00
14594;BME280;7383;52.354;9.756;2023-04-01T08:56:08;-12704.38;;;14.34;100.00
14594;BME280;7383;52.354;9.756;2023-04-01T09:01:55;-12707.78;;;14.54;100.00
14594;BME280;7383;52.354;9.756;2023-04-01T09:04:40;-12708.47;;;14.58;100.00
14594;BME280;7383;52.354;9.756;2023-04-01T09:07:25;-12710.13;;;14.67;100.00
14594;BME280;7383;52.354;9.756;2023-04-01T09:10:15;-12711.34;;;14.74;100.00
14594;BME280;7383;52.354;9.756;2023-04-01T09:12:59;-12711.50;;;14.75;100.00
14594;BME280;7383;52.354;9.756;2023-04-01T09:15:46;-12712.53;;;14.82;100.00
14594;BME280;7383;52.354;9.756;2023-04-01T09:18:41;-12713.16;;;14.85;100.00
14594;BME280;7383;52.354;9.756;2023-04-01T09:24:23;-12714.53;;;14.93;100.00
14594;BME280;7383;52.354;9.756;2023-04-01T09:27:02;-12714.47;;;14.93;100.00
14594;BME280;7383;52.354;9.756;2023-04-01T09:29:49;-12712.13;;;14.79;100.00
14594;BME280;7383;52.354;9.756;2023-04-01T09:35:33;-12709.06;;;14.61;100.00
14594;BME280;7383;52.354;9.756;2023-04-01T09:38:22;-12709.34;;;14.63;100.00
14594;BME280;7383;52.354;9.756;2023-04-01T09:40:57;-12711.06;;;14.73;100.00
14594;BME280;7383;52.354;9.756;2023-04-01T09:43:44;-12711.75;;;14.77;100.00
14594;BME280;7383;52.354;9.756;2023-04-01T09:46:23;-12712.13;;;14.79;100.00
14594;BME280;7383;52.354;9.756;2023-04-01T09:49:13;-12712.88;;;14.84;100.00
14594;BME280;7383;52.354;9.756;2023-04-01T09:51:55;-12712.28;;;14.80;100.00
14594;BME280;7383;52.354;9.756;2023-04-01T09:54:36;-12712.47;;;14.81;100.00
14594;BME280;7383;52.354;9.756;2023-04-01T09:57:34;-12708.72;;;14.59;100.00
14594;BME280;7383;52.354;9.756;2023-04-01T10:03:42;-12706.56;;;14.47;100.00
14594;BME280;7383;52.354;9.756;2023-04-01T10:19:37;-12709.84;;;14.66;100.00
14594;BME280;7383;52.354;9.756;2023-04-01T10:22:35;-12710.13;;;14.67;100.00
14594;BME280;7383;52.354;9.756;2023-04-01T10:25:41;-12709.78;;;14.65;100.00
14594;BME280;7383;52.354;9.756;2023-04-01T10:29:06;-12710.91;;;14.72;100.00
14594;BME280;7383;52.354;9.756;2023-04-01T10:32:03;-12711.34;;;14.74;100.00
14594;BME280;7383;52.354;9.756;2023-04-01T10:34:53;-12712.28;;;14.80;100.00
14594;BME280;7383;52.354;9.756;2023-04-01T10:37:40;-12712.03;;;14.78;100.00
14594;BME280;7383;52.354;9.756;2023-04-01T10:40:38;-12710.81;;;14.71;100.00
14594;BME280;7383;52.354;9.756;2023-04-01T10:43:34;-12711.75;;;14.77;100.00
14594;BME280;7383;52.354;9.756;2023-04-01T10:46:25;-12713.94;;;14.90;100.00
14594;BME280;7383;52.354;9.756;2023-04-01T10:52:36;-12712.81;;;14.83;100.00
14594;BME280;7383;52.354;9.756;2023-04-01T10:58:38;-12714.72;;;14.94;100.00
14594;BME280;7383;52.354;9.756;2023-04-01T11:01:29;-12715.06;;;14.96;100.00
14594;BME280;7383;52.354;9.756;2023-04-01T11:07:31;-12713.06;;;14.85;100.00
14594;BME280;7383;52.354;9.756;2023-04-01T11:19:24;-12711.50;;;14.75;100.00
14594;BME280;7383;52.354;9.756;2023-04-01T11:22:19;-12713.41;;;14.87;100.00
14594;BME280;7383;52.354;9.756;2023-04-01T11:25:09;-12713.69;;;14.88;100.00
14594;BME280;7383;52.354;9.756;2023-04-01T11:28:04;-12713.94;;;14.90;100.00
14594;BME280;7383;52.354;9.756;2023-04-01T11:30:55;-12713.50;;;14.87;100.00
14594;BME280;7383;52.354;9.756;2023-04-01T11:33:42;-12713.75;;;14.89;100.00
14594;BME280;7383;52.354;9.756;2023-04-01T11:36:25;-12714.03;;;14.90;100.00
14594;BME280;7383;52.354;9.756;2023-04-01T11:39:22;-12715.75;;;15.00;100.00
14594;BME280;7383;52.354;9.756;2023-04-01T11:42:03;-12716.78;;;15.06;100.00
14594;BME280;7383;52.354;9.756;2023-04-01T11:44:45;-12718.53;;;15.16;100.00
14594;BME280;7383;52.354;9.756;2023-04-01T11:47:45;-12720.88;;;15.30;100.00
14594;BME280;7383;52.354;9.756;2023-04-01T11:50:41;-12721.56;;;15.34;100.00
14594;BME280;7383;52.354;9.756;2023-04-01T11:57:12;-12727.09;;;15.66;100.00
14594;BME280;7383;52.354;9.756;2023-04-01T12:00:42;-12730.41;;;15.86;100.00
14594;BME280;7383;52.354;9.756;2023-04-01T12:03:48;-12732.03;;;15.95;100.00
14594;BME280;7383;52.354;9.756;2023-04-01T12:08:15;-12730.16;;;15.84;100.00
14594;BME280;7383;52.354;9.756;2023-04-01T12:09:46;-12731.63;;;15.93;100.00
14594;BME280;7383;52.354;9.756;2023-04-01T12:12:32;-12731.00;;;15.89;100.00
14594;BME280;7383;52.354;9.756;2023-04-01T12:15:13;-12729.88;;;15.83;100.00
14594;BME280;7383;52.354;9.756;2023-04-01T12:17:49;-12728.16;;;15.72;100.00
14594;BME280;7383;52.354;9.756;2023-04-01T12:20:28;-12728.66;;;15.75;100.00
14594;BME280;7383;52.354;9.756;2023-04-01T12:23:05;-12728.41;;;15.74;100.00
14594;BME280;7383;52.354;9.756;2023-04-01T12:25:53;-12728.84;;;15.77;100.00
14594;BME280;7383;52.354;9.756;2023-04-01T12:31:39;-12728.84;;;15.77;100.00
14594;BME280;7383;52.354;9.756;2023-04-01T12:34:30;-12730.41;;;15.86;100.00
14594;BME280;7383;52.354;9.756;2023-04-01T12:37:09;-12730.31;;;15.85;100.00
14594;BME280;7383;52.354;9.756;2023-04-01T12:43:35;-12732.31;;;15.97;100.00
14594;BME280;7383;52.354;9.756;2023-04-01T12:46:13;-12731.53;;;15.92;100.00
14594;BME280;7383;52.354;9.756;2023-04-01T12:51:55;-12731.53;;;15.92;100.00
14594;BME280;7383;52.354;9.756;2023-04-01T12:57:43;-12732.47;;;15.98;100.00
14594;BME280;7383;52.354;9.756;2023-04-01T13:00:30;-12732.75;;;15.99;100.00
14594;BME280;7383;52.354;9.756;2023-04-01T13:03:11;-12731.44;;;15.92;100.00
14594;BME280;7383;52.354;9.756;2023-04-01T13:08:53;-12729.09;;;15.78;100.00
14594;BME280;7383;52.354;9.756;2023-04-01T13:11:30;-12729.28;;;15.79;100.00
14594;BME280;7383;52.354;9.756;2023-04-01T13:14:15;-12730.16;;;15.84;100.00
14594;BME280;7383;52.354;9.756;2023-04-01T13:16:53;-12729.97;;;15.83;100.00
14594;BME280;7383;52.354;9.756;2023-04-01T13:19:30;-12729.28;;;15.79;100.00
14594;BME280;7383;52.354;9.756;2023-04-01T13:22:07;-12729.00;;;15.77;100.00
14594;BME280;7383;52.354;9.756;2023-04-01T13:24:43;-12728.50;;;15.74;100.00
14594;BME280;7383;52.354;9.756;2023-04-01T13:27:29;-12728.25;;;15.73;100.00
14594;BME280;7383;52.354;9.756;2023-04-01T13:30:23;-12730.66;;;15.87;100.00
14594;BME280;7383;52.354;9.756;2023-04-01T13:32:58;-12732.22;;;15.96;100.00
14594;BME280;7383;52.354;9.756;2023-04-01T13:35:35;-12732.03;;;15.95;100.00
14594;BME280;7383;52.354;9.756;2023-04-01T13:38:31;-12732.03;;;15.95;100.00
14594;BME280;7383;52.354;9.756;2023-04-01T13:41:11;-12730.84;;;15.88;100.00
14594;BME280;7383;52.354;9.756;2023-04-01T13:43:44;-12731.69;;;15.93;100.00
14594;BME280;7383;52.354;9.756;2023-04-01T13:46:32;-12732.56;;;15.98;100.00
14594;BME280;7383;52.354;9.756;2023-04-01T13:54:58;-12732.13;;;15.96;100.00
14594;BME280;7383;52.354;9.756;2023-04-01T13:57:43;-12732.75;;;15.99;100.00
14594;BME280;7383;52.354;9.756;2023-04-01T14:00:27;-12731.00;;;15.89;100.00
14594;BME280;7383;52.354;9.756;2023-04-01T14:03:19;-12729.72;;;15.82;100.00
14594;BME280;7383;52.354;9.756;2023-04-01T14:05:59;-12726.84;;;15.65;100.00
14594;BME280;7383;52.354;9.756;2023-04-01T14:08:40;-12723.38;;;15.45;100.00
14594;BME280;7383;52.354;9.756;2023-04-01T14:11:15;-12721.13;;;15.32;100.00
14594;BME280;7383;52.354;9.756;2023-04-01T14:13:52;-12718.88;;;15.18;100.00
14594;BME280;7383;52.354;9.756;2023-04-01T14:19:26;-12716.78;;;15.06;100.00
14594;BME280;7383;52.354;9.756;2023-04-01T14:22:05;-12715.31;;;14.98;100.00
14594;BME280;7383;52.354;9.756;2023-04-01T14:24:58;-12714.09;;;14.91;100.00
14594;BME280;7383;52.354;9.756;2023-04-01T14:27:38;-12712.88;;;14.84;100.00
14594;BME280;7383;52.354;9.756;2023-04-01T14:30:34;-12711.75;;;14.77;100.00
14594;BME280;7383;52.354;9.756;2023-04-01T14:33:06;-12710.13;;;14.67;100.00
14594;BME280;7383;52.354;9.756;2023-04-01T14:35:45;-12709.16;;;14.62;100.00
14594;BME280;7383;52.354;9.756;2023-04-01T14:38:35;-12708.91;;;14.60;100.00
14594;BME280;7383;52.354;9.756;2023-04-01T14:41:18;-12707.59;;;14.53;100.00
14594;BME280;7383;52.354;9.756;2023-04-01T14:44:11;-12706.56;;;14.47;100.00
14594;BME280;7383;52.354;9.756;2023-04-01T14:46:54;-12706.03;;;14.44;100.00
14594;BME280;7383;52.354;9.756;2023-04-01T14:49:32;-12704.72;;;14.36;100.00
14594;BME280;7383;52.354;9.756;2023-04-01T14:52:09;-12704.81;;;14.37;100.00
14594;BME280;7383;52.354;9.756;2023-04-01T14:54:41;-12701.59;;;14.18;100.00
14594;BME280;7383;52.354;9.756;2023-04-01T14:57:11;-12702.22;;;14.21;100.00
14594;BME280;7383;52.354;9.756;2023-04-01T14:59:48;-12701.88;;;14.19;100.00
14594;BME280;7383;52.354;9.756;2023-04-01T15:02:35;-12701.78;;;14.19;100.00
14594;BME280;7383;52.354;9.756;2023-04-01T15:05:13;-12700.03;;;14.09;100.00
14594;BME280;7383;52.354;9.756;2023-04-01T15:08:04;-12700.38;;;14.11;100.00
14594;BME280;7383;52.354;9.756;2023-04-01T15:10:57;-12699.53;;;14.06;100.00